sensor_id;sensor_type;location;lat;lon;timestamp;P1;durP1;ratioP1;P2;durP2;ratioP2
11263;SDS011;5689;48.798;9.070;2023-03-11T00:01:09;0.90;;;0.90;;
11263;SDS011;5689;48.798;9.070;2023-03-11T00:03:37;0.90;;;0.90;;
11263;SDS011;5689;48.798;9.070;2023-03-11T00:06:06;1.00;;;1.00;;
11263;SDS011;5689;48.798;9.070;2023-03-11T00:08:34;1.10;;;1.10;;
11263;SDS011;5689;48.798;9.070;2023-03-11T00:11:03;1.00;;;1.00;;
11263;SDS011;5689;48.798;9.070;2023-03-11T00:13:31;1.00;;;1.00;;
11263;SDS011;5689;48.798;9.070;2023-03-11T00:16:01;1.03;;;1.03;;
11263;SDS011;5689;48.798;9.070;2023-03-11T00:18:30;0.90;;;0.90;;
11263;SDS011;5689;48.798;9.070;2023-03-11T00:20:58;0.83;;;0.83;;
11263;SDS011;5689;48.798;9.070;2023-03-11T00:23:26;0.90;;;0.90;;
11263;SDS011;5689;48.798;9.070;2023-03-11T00:25:55;0.90;;;0.90;;
11263;SDS011;5689;48.798;9.070;2023-03-11T00:28:26;0.87;;;0.87;;
11263;SDS011;5689;48.798;9.070;2023-03-11T00:30:54;0.80;;;0.80;;
11263;SDS011;5689;48.798;9.070;2023-03-11T00:33:22;1.00;;;1.00;;
11263;SDS011;5689;48.798;9.070;2023-03-11T00:35:50;1.00;;;1.00;;
11263;SDS011;5689;48.798;9.070;2023-03-11T00:38:18;0.90;;;0.90;;
11263;SDS011;5689;48.798;9.070;2023-03-11T00:40:47;0.90;;;0.90;;
11263;SDS011;5689;48.798;9.070;2023-03-11T00:43:15;1.03;;;1.03;;
11263;SDS011;5689;48.798;9.070;2023-03-11T00:45:45;1.00;;;1.00;;
11263;SDS011;5689;48.798;9.070;2023-03-11T00:48:13;1.07;;;1.07;;
11263;SDS011;5689;48.798;9.070;2023-03-11T00:50:41;0.90;;;0.90;;
11263;SDS011;5689;48.798;9.070;2023-03-11T00:53:09;0.90;;;0.90;;
11263;SDS011;5689;48.798;9.070;2023-03-11T00:55:38;0.97;;;0.97;;
11263;SDS011;5689;48.798;9.070;2023-03-11T00:58:09;0.90;;;0.90;;
11263;SDS011;5689;48.798;9.070;2023-03-11T01:00:41;0.93;;;0.93;;
11263;SDS011;5689;48.798;9.070;2023-03-11T01:03:11;4.27;;;4.07;;
11263;SDS011;5689;48.798;9.070;2023-03-11T01:05:39;0.90;;;0.90;;
11263;SDS011;5689;48.798;9.070;2023-03-11T01:08:07;0.90;;;0.90;;
11263;SDS011;5689;48.798;9.070;2023-03-11T01:10:35;0.90;;;0.90;;
11263;SDS011;5689;48.798;9.070;2023-03-11T01:13:03;0.90;;;0.90;;
11263;SDS011;5689;48.798;9.070;2023-03-11T01:15:32;1.00;;;1.00;;
11263;SDS011;5689;48.798;9.070;2023-03-11T01:18:03;0.90;;;0.90;;
11263;SDS011;5689;48.798;9.070;2023-03-11T01:20:33;1.13;;;1.13;;
11263;SDS011;5689;48.798;9.070;2023-03-11T01:23:03;1.00;;;1.00;;
11263;SDS011;5689;48.798;9.070;2023-03-11T01:25:31;1.10;;;1.10;;
11263;SDS011;5689;48.798;9.070;2023-03-11T01:28:00;1.10;;;1.10;;
11263;SDS011;5689;48.798;9.070;2023-03-11T01:30:29;0.97;;;0.97;;
11263;SDS011;5689;48.798;9.070;2023-03-11T01:32:57;1.07;;;1.07;;
11263;SDS011;5689;48.798;9.070;2023-03-11T01:35:26;1.00;;;1.00;;
11263;SDS011;5689;48.798;9.070;2023-03-11T01:37:56;1.10;;;1.10;;
11263;SDS011;5689;48.798;9.070;2023-03-11T01:40:26;1.00;;;1.00;;
11263;SDS011;5689;48.798;9.070;2023-03-11T01:42:59;1.10;;;1.10;;
11263;SDS011;5689;48.798;9.070;2023-03-11T01:45:39;1.13;;;1.13;;
11263;SDS011;5689;48.798;9.070;2023-03-11T01:48:10;1.30;;;1.30;;
11263;SDS011;5689;48.798;9.070;2023-03-11T01:50:39;1.10;;;1.10;;
11263;SDS011;5689;48.798;9.070;2023-03-11T01:53:12;0.90;;;0.90;;
11263;SDS011;5689;48.798;9.070;2023-03-11T01:55:44;1.00;;;1.00;;
11263;SDS011;5689;48.798;9.070;2023-03-11T01:58:15;1.20;;;1.20;;
11263;SDS011;5689;48.798;9.070;2023-03-11T02:00:45;1.10;;;1.10;;
11263;SDS011;5689;48.798;9.070;2023-03-11T02:03:14;1.20;;;1.20;;
11263;SDS011;5689;48.798;9.070;2023-03-11T02:05:48;1.00;;;1.00;;
11263;SDS011;5689;48.798;9.070;2023-03-11T02:08:19;1.10;;;1.10;;
11263;SDS011;5689;48.798;9.070;2023-03-11T02:10:47;4.60;;;4.40;;
11263;SDS011;5689;48.798;9.070;2023-03-11T02:13:15;1.10;;;1.10;;
11263;SDS011;5689;48.798;9.070;2023-03-11T02:15:44;1.07;;;1.07;;
11263;SDS011;5689;48.798;9.070;2023-03-11T02:18:12;1.30;;;1.30;;
11263;SDS011;5689;48.798;9.070;2023-03-11T02:20:44;1.07;;;1.07;;
11263;SDS011;5689;48.798;9.070;2023-03-11T02:23:18;1.30;;;1.30;;
11263;SDS011;5689;48.798;9.070;2023-03-11T02:25:52;1.17;;;1.17;;
11263;SDS011;5689;48.798;9.070;2023-03-11T02:28:25;1.37;;;1.37;;
11263;SDS011;5689;48.798;9.070;2023-03-11T02:30:54;1.10;;;1.10;;
11263;SDS011;5689;48.798;9.070;2023-03-11T02:33:23;1.40;;;1.40;;
11263;SDS011;5689;48.798;9.070;2023-03-11T02:35:56;1.30;;;1.30;;
11263;SDS011;5689;48.798;9.070;2023-03-11T02:38:24;1.20;;;1.20;;
11263;SDS011;5689;48.798;9.070;2023-03-11T02:40:54;1.20;;;1.20;;
11263;SDS011;5689;48.798;9.070;2023-03-11T02:43:28;1.10;;;1.10;;
11263;SDS011;5689;48.798;9.070;2023-03-11T02:46:02;1.40;;;1.40;;
11263;SDS011;5689;48.798;9.070;2023-03-11T02:48:31;1.13;;;1.13;;
11263;SDS011;5689;48.798;9.070;2023-03-11T02:51:01;1.20;;;1.20;;
11263;SDS011;5689;48.798;9.070;2023-03-11T02:53:30;1.20;;;1.20;;
11263;SDS011;5689;48.798;9.070;2023-03-11T02:56:02;1.30;;;1.30;;
11263;SDS011;5689;48.798;9.070;2023-03-11T02:58:33;1.40;;;1.40;;
11263;SDS011;5689;48.798;9.070;2023-03-11T03:01:01;1.10;;;1.10;;
11263;SDS011;5689;48.798;9.070;2023-03-11T03:03:29;1.40;;;1.40;;
11263;SDS011;5689;48.798;9.070;2023-03-11T03:05:57;1.30;;;1.30;;
11263;SDS011;5689;48.798;9.070;2023-03-11T03:08:25;1.23;;;1.23;;
11263;SDS011;5689;48.798;9.070;2023-03-11T03:10:53;1.50;;;1.40;;
11263;SDS011;5689;48.798;9.070;2023-03-11T03:13:22;1.10;;;1.10;;
11263;SDS011;5689;48.798;9.070;2023-03-11T03:15:51;1.20;;;1.20;;
11263;SDS011;5689;48.798;9.070;2023-03-11T03:18:20;1.00;;;1.00;;
11263;SDS011;5689;48.798;9.070;2023-03-11T03:20:48;1.30;;;1.30;;
11263;SDS011;5689;48.798;9.070;2023-03-11T03:23:17;1.40;;;1.40;;
11263;SDS011;5689;48.798;9.070;2023-03-11T03:25:45;1.30;;;1.30;;
11263;SDS011;5689;48.798;9.070;2023-03-11T03:28:13;1.10;;;1.10;;
11263;SDS011;5689;48.798;9.070;2023-03-11T03:30:44;1.10;;;1.10;;
11263;SDS011;5689;48.798;9.070;2023-03-11T03:33:14;1.30;;;1.30;;
11263;SDS011;5689;48.798;9.070;2023-03-11T03:35:43;1.20;;;1.20;;
11263;SDS011;5689;48.798;9.070;2023-03-11T03:38:17;1.30;;;1.30;;
11263;SDS011;5689;48.798;9.070;2023-03-11T03:40:46;1.30;;;1.30;;
11263;SDS011;5689;48.798;9.070;2023-03-11T03:43:17;1.23;;;1.23;;
11263;SDS011;5689;48.798;9.070;2023-03-11T03:45:53;1.40;;;1.40;;
11263;SDS011;5689;48.798;9.070;2023-03-11T03:48:25;1.27;;;1.27;;
11263;SDS011;5689;48.798;9.070;2023-03-11T03:50:53;1.53;;;1.53;;
11263;SDS011;5689;48.798;9.070;2023-03-11T03:53:21;1.33;;;1.33;;
11263;SDS011;5689;48.798;9.070;2023-03-11T03:55:49;1.47;;;1.47;;
11263;SDS011;5689;48.798;9.070;2023-03-11T03:58:19;1.40;;;1.40;;
11263;SDS011;5689;48.798;9.070;2023-03-11T04:00:47;1.30;;;1.30;;
11263;SDS011;5689;48.798;9.070;2023-03-11T04:03:15;1.30;;;1.30;;
11263;SDS011;5689;48.798;9.070;2023-03-11T04:05:51;1.40;;;1.40;;
11263;SDS011;5689;48.798;9.070;2023-03-11T04:08:19;1.30;;;1.30;;
11263;SDS011;5689;48.798;9.070;2023-03-11T04:10:54;1.40;;;1.40;;
11263;SDS011;5689;48.798;9.070;2023-03-11T04:13:24;1.40;;;1.40;;
11263;SDS011;5689;48.798;9.070;2023-03-11T04:15:52;1.20;;;1.20;;
11263;SDS011;5689;48.798;9.070;2023-03-11T04:18:20;1.37;;;1.37;;
11263;SDS011;5689;48.798;9.070;2023-03-11T04:20:49;1.37;;;1.37;;
11263;SDS011;5689;48.798;9.070;2023-03-11T04:23:19;1.30;;;1.30;;
11263;SDS011;5689;48.798;9.070;2023-03-11T04:25:47;1.20;;;1.20;;
11263;SDS011;5689;48.798;9.070;2023-03-11T04:28:15;1.27;;;1.27;;
11263;SDS011;5689;48.798;9.070;2023-03-11T04:30:43;1.30;;;1.30;;
11263;SDS011;5689;48.798;9.070;2023-03-11T04:33:11;1.67;;;1.57;;
11263;SDS011;5689;48.798;9.070;2023-03-11T04:35:40;1.37;;;1.37;;
11263;SDS011;5689;48.798;9.070;2023-03-11T04:38:08;1.47;;;1.47;;
11263;SDS011;5689;48.798;9.070;2023-03-11T04:40:38;1.57;;;1.57;;
11263;SDS011;5689;48.798;9.070;2023-03-11T04:43:06;1.20;;;1.20;;
11263;SDS011;5689;48.798;9.070;2023-03-11T04:45:36;1.60;;;1.50;;
11263;SDS011;5689;48.798;9.070;2023-03-11T04:48:05;1.50;;;1.50;;
11263;SDS011;5689;48.798;9.070;2023-03-11T04:50:35;1.40;;;1.40;;
11263;SDS011;5689;48.798;9.070;2023-03-11T04:53:03;1.20;;;1.20;;
11263;SDS011;5689;48.798;9.070;2023-03-11T04:55:32;1.40;;;1.40;;
11263;SDS011;5689;48.798;9.070;2023-03-11T04:58:01;1.40;;;1.40;;
11263;SDS011;5689;48.798;9.070;2023-03-11T05:00:30;1.20;;;1.20;;
11263;SDS011;5689;48.798;9.070;2023-03-11T05:03:03;1.57;;;1.57;;
11263;SDS011;5689;48.798;9.070;2023-03-11T05:05:31;1.63;;;1.63;;
11263;SDS011;5689;48.798;9.070;2023-03-11T05:08:00;1.57;;;1.57;;
11263;SDS011;5689;48.798;9.070;2023-03-11T05:10:29;1.33;;;1.33;;
11263;SDS011;5689;48.798;9.070;2023-03-11T05:13:02;1.50;;;1.50;;
11263;SDS011;5689;48.798;9.070;2023-03-11T05:15:33;1.50;;;1.50;;
11263;SDS011;5689;48.798;9.070;2023-03-11T05:18:02;1.40;;;1.40;;
11263;SDS011;5689;48.798;9.070;2023-03-11T05:20:33;1.40;;;1.40;;
11263;SDS011;5689;48.798;9.070;2023-03-11T05:23:01;1.30;;;1.30;;
11263;SDS011;5689;48.798;9.070;2023-03-11T05:25:32;1.33;;;1.33;;
11263;SDS011;5689;48.798;9.070;2023-03-11T05:28:02;1.40;;;1.40;;
11263;SDS011;5689;48.798;9.070;2023-03-11T05:30:34;1.50;;;1.50;;
11263;SDS011;5689;48.798;9.070;2023-03-11T05:33:03;1.53;;;1.53;;
11263;SDS011;5689;48.798;9.070;2023-03-11T05:35:31;1.20;;;1.20;;
11263;SDS011;5689;48.798;9.070;2023-03-11T05:37:59;1.20;;;1.20;;
11263;SDS011;5689;48.798;9.070;2023-03-11T05:40:28;1.20;;;1.20;;
11263;SDS011;5689;48.798;9.070;2023-03-11T05:42:56;1.30;;;1.30;;
11263;SDS011;5689;48.798;9.070;2023-03-11T05:45:27;1.40;;;1.40;;
11263;SDS011;5689;48.798;9.070;2023-03-11T05:47:58;1.27;;;1.27;;
11263;SDS011;5689;48.798;9.070;2023-03-11T05:50:26;1.20;;;1.20;;
11263;SDS011;5689;48.798;9.070;2023-03-11T05:52:54;1.40;;;1.40;;
11263;SDS011;5689;48.798;9.070;2023-03-11T05:55:22;1.33;;;1.33;;
11263;SDS011;5689;48.798;9.070;2023-03-11T05:57:50;1.30;;;1.30;;
11263;SDS011;5689;48.798;9.070;2023-03-11T06:00:20;1.30;;;1.30;;
11263;SDS011;5689;48.798;9.070;2023-03-11T06:02:52;1.20;;;1.20;;
11263;SDS011;5689;48.798;9.070;2023-03-11T06:05:20;1.40;;;1.40;;
11263;SDS011;5689;48.798;9.070;2023-03-11T06:07:49;1.67;;;1.67;;
11263;SDS011;5689;48.798;9.070;2023-03-11T06:10:20;1.20;;;1.20;;
11263;SDS011;5689;48.798;9.070;2023-03-11T06:12:48;1.50;;;1.50;;
11263;SDS011;5689;48.798;9.070;2023-03-11T06:15:22;1.33;;;1.33;;
11263;SDS011;5689;48.798;9.070;2023-03-11T06:17:52;1.13;;;1.13;;
11263;SDS011;5689;48.798;9.070;2023-03-11T06:20:20;1.30;;;1.30;;
11263;SDS011;5689;48.798;9.070;2023-03-11T06:22:49;1.33;;;1.33;;
11263;SDS011;5689;48.798;9.070;2023-03-11T06:25:21;1.40;;;1.40;;
11263;SDS011;5689;48.798;9.070;2023-03-11T06:27:50;1.23;;;1.23;;
11263;SDS011;5689;48.798;9.070;2023-03-11T06:30:20;1.33;;;1.33;;
11263;SDS011;5689;48.798;9.070;2023-03-11T06:32:58;1.20;;;1.20;;
11263;SDS011;5689;48.798;9.070;2023-03-11T06:35:26;1.10;;;1.10;;
11263;SDS011;5689;48.798;9.070;2023-03-11T06:37:54;0.80;;;0.80;;
11263;SDS011;5689;48.798;9.070;2023-03-11T06:40:22;0.83;;;0.83;;
11263;SDS011;5689;48.798;9.070;2023-03-11T06:42:50;1.10;;;1.10;;
11263;SDS011;5689;48.798;9.070;2023-03-11T06:45:20;0.90;;;0.90;;
11263;SDS011;5689;48.798;9.070;2023-03-11T06:47:50;0.93;;;0.93;;
11263;SDS011;5689;48.798;9.070;2023-03-11T06:50:20;1.00;;;1.00;;
11263;SDS011;5689;48.798;9.070;2023-03-11T06:52:50;0.90;;;0.90;;
11263;SDS011;5689;48.798;9.070;2023-03-11T06:55:18;1.00;;;1.00;;
11263;SDS011;5689;48.798;9.070;2023-03-11T06:57:47;0.93;;;0.93;;
11263;SDS011;5689;48.798;9.070;2023-03-11T07:00:15;0.80;;;0.80;;
11263;SDS011;5689;48.798;9.070;2023-03-11T07:02:49;0.87;;;0.87;;
11263;SDS011;5689;48.798;9.070;2023-03-11T07:05:17;0.70;;;0.70;;
11263;SDS011;5689;48.798;9.070;2023-03-11T07:07:48;0.80;;;0.80;;
11263;SDS011;5689;48.798;9.070;2023-03-11T07:10:16;0.73;;;0.73;;
11263;SDS011;5689;48.798;9.070;2023-03-11T07:12:44;0.80;;;0.80;;
11263;SDS011;5689;48.798;9.070;2023-03-11T07:15:12;0.70;;;0.70;;
11263;SDS011;5689;48.798;9.070;2023-03-11T07:17:40;0.70;;;0.70;;
11263;SDS011;5689;48.798;9.070;2023-03-11T07:20:09;0.77;;;0.77;;
11263;SDS011;5689;48.798;9.070;2023-03-11T07:22:38;0.70;;;0.70;;
11263;SDS011;5689;48.798;9.070;2023-03-11T07:25:07;0.70;;;0.70;;
11263;SDS011;5689;48.798;9.070;2023-03-11T07:27:35;0.70;;;0.70;;
11263;SDS011;5689;48.798;9.070;2023-03-11T07:30:04;0.60;;;0.60;;
11263;SDS011;5689;48.798;9.070;2023-03-11T07:32:32;0.67;;;0.67;;
11263;SDS011;5689;48.798;9.070;2023-03-11T07:35:00;0.60;;;0.60;;
11263;SDS011;5689;48.798;9.070;2023-03-11T07:37:29;0.60;;;0.60;;
11263;SDS011;5689;48.798;9.070;2023-03-11T07:39:57;0.60;;;0.60;;
11263;SDS011;5689;48.798;9.070;2023-03-11T07:42:27;0.60;;;0.60;;
11263;SDS011;5689;48.798;9.070;2023-03-11T07:44:55;0.43;;;0.43;;
11263;SDS011;5689;48.798;9.070;2023-03-11T07:47:23;0.40;;;0.40;;
11263;SDS011;5689;48.798;9.070;2023-03-11T07:49:50;0.40;;;0.40;;
11263;SDS011;5689;48.798;9.070;2023-03-11T07:52:21;0.43;;;0.43;;
11263;SDS011;5689;48.798;9.070;2023-03-11T07:54:48;0.30;;;0.30;;
11263;SDS011;5689;48.798;9.070;2023-03-11T07:57:16;0.30;;;0.30;;
11263;SDS011;5689;48.798;9.070;2023-03-11T07:59:46;0.40;;;0.40;;
11263;SDS011;5689;48.798;9.070;2023-03-11T08:02:13;0.50;;;0.50;;
11263;SDS011;5689;48.798;9.070;2023-03-11T08:04:41;0.40;;;0.40;;
11263;SDS011;5689;48.798;9.070;2023-03-11T08:07:09;0.40;;;0.40;;
11263;SDS011;5689;48.798;9.070;2023-03-11T08:09:37;0.33;;;0.33;;
11263;SDS011;5689;48.798;9.070;2023-03-11T08:12:06;0.40;;;0.40;;
11263;SDS011;5689;48.798;9.070;2023-03-11T08:14:34;0.40;;;0.40;;
11263;SDS011;5689;48.798;9.070;2023-03-11T08:17:04;0.47;;;0.47;;
11263;SDS011;5689;48.798;9.070;2023-03-11T08:19:32;0.33;;;0.33;;
11263;SDS011;5689;48.798;9.070;2023-03-11T08:22:00;0.30;;;0.30;;
11263;SDS011;5689;48.798;9.070;2023-03-11T08:24:28;0.30;;;0.30;;
11263;SDS011;5689;48.798;9.070;2023-03-11T08:26:56;0.30;;;0.30;;
11263;SDS011;5689;48.798;9.070;2023-03-11T08:29:24;0.30;;;0.30;;
11263;SDS011;5689;48.798;9.070;2023-03-11T08:31:52;0.30;;;0.30;;
11263;SDS011;5689;48.798;9.070;2023-03-11T08:34:22;0.25;;;0.25;;
11263;SDS011;5689;48.798;9.070;2023-03-11T08:36:52;0.20;;;0.20;;
11263;SDS011;5689;48.798;9.070;2023-03-11T08:39:20;0.40;;;0.40;;
11263;SDS011;5689;48.798;9.070;2023-03-11T08:41:49;0.50;;;0.50;;
11263;SDS011;5689;48.798;9.070;2023-03-11T08:44:17;0.43;;;0.43;;
11263;SDS011;5689;48.798;9.070;2023-03-11T08:46:45;0.50;;;0.50;;
11263;SDS011;5689;48.798;9.070;2023-03-11T08:49:13;0.40;;;0.40;;
11263;SDS011;5689;48.798;9.070;2023-03-11T08:51:42;0.50;;;0.50;;
11263;SDS011;5689;48.798;9.070;2023-03-11T08:54:10;0.40;;;0.40;;
11263;SDS011;5689;48.798;9.070;2023-03-11T08:56:38;0.30;;;0.30;;
11263;SDS011;5689;48.798;9.070;2023-03-11T08:59:06;0.30;;;0.30;;
11263;SDS011;5689;48.798;9.070;2023-03-11T09:01:34;0.30;;;0.30;;
11263;SDS011;5689;48.798;9.070;2023-03-11T09:04:02;0.40;;;0.40;;
11263;SDS011;5689;48.798;9.070;2023-03-11T09:06:30;0.30;;;0.30;;
11263;SDS011;5689;48.798;9.070;2023-03-11T09:08:59;0.30;;;0.30;;
11263;SDS011;5689;48.798;9.070;2023-03-11T09:11:27;0.10;;;0.10;;
11263;SDS011;5689;48.798;9.070;2023-03-11T09:13:55;0.33;;;0.33;;
11263;SDS011;5689;48.798;9.070;2023-03-11T09:16:23;0.40;;;0.40;;
11263;SDS011;5689;48.798;9.070;2023-03-11T09:18:51;0.40;;;0.40;;
11263;SDS011;5689;48.798;9.070;2023-03-11T09:21:20;0.20;;;0.20;;
11263;SDS011;5689;48.798;9.070;2023-03-11T09:23:48;0.30;;;0.30;;
11263;SDS011;5689;48.798;9.070;2023-03-11T09:26:17;0.30;;;0.30;;
11263;SDS011;5689;48.798;9.070;2023-03-11T09:28:45;0.30;;;0.30;;
11263;SDS011;5689;48.798;9.070;2023-03-11T09:31:14;0.30;;;0.30;;
11263;SDS011;5689;48.798;9.070;2023-03-11T09:33:43;0.30;;;0.30;;
11263;SDS011;5689;48.798;9.070;2023-03-11T09:36:12;0.40;;;0.40;;
11263;SDS011;5689;48.798;9.070;2023-03-11T09:38:41;0.50;;;0.50;;
11263;SDS011;5689;48.798;9.070;2023-03-11T09:41:12;0.40;;;0.40;;
11263;SDS011;5689;48.798;9.070;2023-03-11T09:43:54;0.50;;;0.50;;
11263;SDS011;5689;48.798;9.070;2023-03-11T09:46:45;0.60;;;0.60;;
11263;SDS011;5689;48.798;9.070;2023-03-11T09:49:25;0.57;;;0.57;;
11263;SDS011;5689;48.798;9.070;2023-03-11T09:52:00;0.70;;;0.70;;
11263;SDS011;5689;48.798;9.070;2023-03-11T09:54:36;0.80;;;0.80;;
11263;SDS011;5689;48.798;9.070;2023-03-11T09:57:10;0.90;;;0.90;;
11263;SDS011;5689;48.798;9.070;2023-03-11T09:59:41;0.50;;;0.50;;
11263;SDS011;5689;48.798;9.070;2023-03-11T10:02:12;0.30;;;0.30;;
11263;SDS011;5689;48.798;9.070;2023-03-11T10:04:44;0.57;;;0.57;;
11263;SDS011;5689;48.798;9.070;2023-03-11T10:07:20;0.70;;;0.70;;
11263;SDS011;5689;48.798;9.070;2023-03-11T10:09:52;0.30;;;0.30;;
11263;SDS011;5689;48.798;9.070;2023-03-11T10:12:36;0.60;;;0.60;;
11263;SDS011;5689;48.798;9.070;2023-03-11T10:15:18;0.90;;;0.90;;
11263;SDS011;5689;48.798;9.070;2023-03-11T10:17:54;0.80;;;0.80;;
11263;SDS011;5689;48.798;9.070;2023-03-11T10:20:30;0.50;;;0.50;;
11263;SDS011;5689;48.798;9.070;2023-03-11T10:23:07;0.57;;;0.57;;
11263;SDS011;5689;48.798;9.070;2023-03-11T10:25:46;0.90;;;0.90;;
11263;SDS011;5689;48.798;9.070;2023-03-11T10:28:22;0.50;;;0.50;;
11263;SDS011;5689;48.798;9.070;2023-03-11T10:30:53;0.50;;;0.50;;
11263;SDS011;5689;48.798;9.070;2023-03-11T10:33:25;0.70;;;0.70;;
11263;SDS011;5689;48.798;9.070;2023-03-11T10:35:59;0.50;;;0.50;;
11263;SDS011;5689;48.798;9.070;2023-03-11T10:38:33;0.60;;;0.60;;
11263;SDS011;5689;48.798;9.070;2023-03-11T10:41:11;0.80;;;0.80;;
11263;SDS011;5689;48.798;9.070;2023-03-11T10:43:48;0.40;;;0.40;;
11263;SDS011;5689;48.798;9.070;2023-03-11T10:46:22;0.40;;;0.40;;
11263;SDS011;5689;48.798;9.070;2023-03-11T10:48:52;0.50;;;0.50;;
11263;SDS011;5689;48.798;9.070;2023-03-11T10:51:21;0.60;;;0.60;;
11263;SDS011;5689;48.798;9.070;2023-03-11T10:53:52;0.60;;;0.60;;
11263;SDS011;5689;48.798;9.070;2023-03-11T10:56:26;0.80;;;0.80;;
11263;SDS011;5689;48.798;9.070;2023-03-11T10:58:58;0.60;;;0.60;;
11263;SDS011;5689;48.798;9.070;2023-03-11T11:01:26;0.50;;;0.50;;
11263;SDS011;5689;48.798;9.070;2023-03-11T11:03:56;0.30;;;0.30;;
11263;SDS011;5689;48.798;9.070;2023-03-11T11:06:26;0.30;;;0.30;;
11263;SDS011;5689;48.798;9.070;2023-03-11T11:12:02;0.30;;;0.30;;
11263;SDS011;5689;48.798;9.070;2023-03-11T11:14:43;0.50;;;0.50;;
11263;SDS011;5689;48.798;9.070;2023-03-11T11:17:19;0.67;;;0.67;;
11263;SDS011;5689;48.798;9.070;2023-03-11T11:19:50;1.00;;;1.00;;
11263;SDS011;5689;48.798;9.070;2023-03-11T11:22:20;0.60;;;0.60;;
11263;SDS011;5689;48.798;9.070;2023-03-11T11:24:50;0.70;;;0.70;;
11263;SDS011;5689;48.798;9.070;2023-03-11T11:27:20;0.50;;;0.50;;
11263;SDS011;5689;48.798;9.070;2023-03-11T11:30:03;0.70;;;0.70;;
11263;SDS011;5689;48.798;9.070;2023-03-11T11:32:41;0.70;;;0.70;;
11263;SDS011;5689;48.798;9.070;2023-03-11T11:35:10;0.50;;;0.50;;
11263;SDS011;5689;48.798;9.070;2023-03-11T11:37:41;0.40;;;0.40;;
11263;SDS011;5689;48.798;9.070;2023-03-11T11:40:16;0.40;;;0.40;;
11263;SDS011;5689;48.798;9.070;2023-03-11T11:42:54;0.25;;;0.25;;
11263;SDS011;5689;48.798;9.070;2023-03-11T11:45:28;0.40;;;0.40;;
11263;SDS011;5689;48.798;9.070;2023-03-11T11:48:03;0.30;;;0.30;;
11263;SDS011;5689;48.798;9.070;2023-03-11T11:50:34;0.22;;;0.22;;
11263;SDS011;5689;48.798;9.070;2023-03-11T11:53:08;0.30;;;0.30;;
11263;SDS011;5689;48.798;9.070;2023-03-11T11:55:46;0.30;;;0.30;;
11263;SDS011;5689;48.798;9.070;2023-03-11T11:58:15;0.30;;;0.30;;
11263;SDS011;5689;48.798;9.070;2023-03-11T12:00:47;0.40;;;0.40;;
11263;SDS011;5689;48.798;9.070;2023-03-11T12:06:30;0.45;;;0.45;;
11263;SDS011;5689;48.798;9.070;2023-03-11T12:09:05;0.30;;;0.30;;
11263;SDS011;5689;48.798;9.070;2023-03-11T12:11:42;0.30;;;0.30;;
11263;SDS011;5689;48.798;9.070;2023-03-11T12:14:17;0.20;;;0.20;;
11263;SDS011;5689;48.798;9.070;2023-03-11T12:16:53;0.20;;;0.20;;
11263;SDS011;5689;48.798;9.070;2023-03-11T12:19:32;0.30;;;0.30;;
11263;SDS011;5689;48.798;9.070;2023-03-11T12:22:09;0.30;;;0.30;;
11263;SDS011;5689;48.798;9.070;2023-03-11T12:25:00;0.30;;;0.30;;
11263;SDS011;5689;48.798;9.070;2023-03-11T12:27:48;0.20;;;0.20;;
11263;SDS011;5689;48.798;9.070;2023-03-11T12:30:20;0.20;;;0.20;;
11263;SDS011;5689;48.798;9.070;2023-03-11T12:32:54;0.13;;;0.13;;
11263;SDS011;5689;48.798;9.070;2023-03-11T12:35:25;0.20;;;0.20;;
11263;SDS011;5689;48.798;9.070;2023-03-11T12:38:03;0.20;;;0.20;;
11263;SDS011;5689;48.798;9.070;2023-03-11T12:40:47;0.20;;;0.20;;
11263;SDS011;5689;48.798;9.070;2023-03-11T12:49:37;0.20;;;0.20;;
11263;SDS011;5689;48.798;9.070;2023-03-11T12:52:17;0.30;;;0.30;;
11263;SDS011;5689;48.798;9.070;2023-03-11T13:04:20;0.40;;;0.40;;
11263;SDS011;5689;48.798;9.070;2023-03-11T13:07:24;0.57;;;0.57;;
11263;SDS011;5689;48.798;9.070;2023-03-11T13:10:11;0.60;;;0.60;;
11263;SDS011;5689;48.798;9.070;2023-03-11T13:12:43;0.50;;;0.50;;
11263;SDS011;5689;48.798;9.070;2023-03-11T13:18:11;0.40;;;0.40;;
11263;SDS011;5689;48.798;9.070;2023-03-11T13:20:44;0.60;;;0.60;;
11263;SDS011;5689;48.798;9.070;2023-03-11T13:23:27;0.40;;;0.40;;
11263;SDS011;5689;48.798;9.070;2023-03-11T13:26:12;0.30;;;0.30;;
11263;SDS011;5689;48.798;9.070;2023-03-11T13:29:02;0.30;;;0.30;;
11263;SDS011;5689;48.798;9.070;2023-03-11T13:31:43;0.30;;;0.30;;
11263;SDS011;5689;48.798;9.070;2023-03-11T13:34:23;0.50;;;0.50;;
11263;SDS011;5689;48.798;9.070;2023-03-11T13:37:05;0.50;;;0.50;;
11263;SDS011;5689;48.798;9.070;2023-03-11T13:39:52;0.57;;;0.57;;
11263;SDS011;5689;48.798;9.070;2023-03-11T13:42:30;0.60;;;0.60;;
11263;SDS011;5689;48.798;9.070;2023-03-11T13:45:02;0.47;;;0.47;;
11263;SDS011;5689;48.798;9.070;2023-03-11T13:47:30;0.50;;;0.50;;
11263;SDS011;5689;48.798;9.070;2023-03-11T13:50:01;0.40;;;0.40;;
11263;SDS011;5689;48.798;9.070;2023-03-11T13:52:33;0.30;;;0.30;;
11263;SDS011;5689;48.798;9.070;2023-03-11T13:55:06;0.20;;;0.20;;
11263;SDS011;5689;48.798;9.070;2023-03-11T13:57:48;0.20;;;0.20;;
11263;SDS011;5689;48.798;9.070;2023-03-11T14:00:17;0.30;;;0.30;;
11263;SDS011;5689;48.798;9.070;2023-03-11T14:02:49;0.35;;;0.35;;
11263;SDS011;5689;48.798;9.070;2023-03-11T14:05:21;0.30;;;0.30;;
11263;SDS011;5689;48.798;9.070;2023-03-11T14:07:52;0.30;;;0.30;;
11263;SDS011;5689;48.798;9.070;2023-03-11T14:10:23;0.10;;;0.10;;
11263;SDS011;5689;48.798;9.070;2023-03-11T14:13:06;0.20;;;0.20;;
11263;SDS011;5689;48.798;9.070;2023-03-11T14:15:44;0.20;;;0.20;;
11263;SDS011;5689;48.798;9.070;2023-03-11T14:18:25;0.30;;;0.30;;
11263;SDS011;5689;48.798;9.070;2023-03-11T14:20:56;0.30;;;0.30;;
11263;SDS011;5689;48.798;9.070;2023-03-11T14:23:27;0.40;;;0.40;;
11263;SDS011;5689;48.798;9.070;2023-03-11T14:26:00;0.40;;;0.40;;
11263;SDS011;5689;48.798;9.070;2023-03-11T14:28:33;0.40;;;0.40;;
11263;SDS011;5689;48.798;9.070;2023-03-11T14:31:04;0.32;;;0.32;;
11263;SDS011;5689;48.798;9.070;2023-03-11T14:33:32;0.40;;;0.40;;
11263;SDS011;5689;48.798;9.070;2023-03-11T14:36:01;0.50;;;0.50;;
11263;SDS011;5689;48.798;9.070;2023-03-11T14:38:31;0.40;;;0.40;;
11263;SDS011;5689;48.798;9.070;2023-03-11T14:41:01;0.40;;;0.40;;
11263;SDS011;5689;48.798;9.070;2023-03-11T14:43:32;0.32;;;0.32;;
11263;SDS011;5689;48.798;9.070;2023-03-11T14:46:03;0.30;;;0.30;;
11263;SDS011;5689;48.798;9.070;2023-03-11T14:48:34;0.43;;;0.43;;
11263;SDS011;5689;48.798;9.070;2023-03-11T14:51:06;0.30;;;0.30;;
11263;SDS011;5689;48.798;9.070;2023-03-11T14:53:41;0.30;;;0.30;;
11263;SDS011;5689;48.798;9.070;2023-03-11T14:56:14;0.40;;;0.40;;
11263;SDS011;5689;48.798;9.070;2023-03-11T14:58:46;0.35;;;0.35;;
11263;SDS011;5689;48.798;9.070;2023-03-11T15:01:32;0.40;;;0.40;;
11263;SDS011;5689;48.798;9.070;2023-03-11T15:04:07;0.40;;;0.40;;
11263;SDS011;5689;48.798;9.070;2023-03-11T15:06:38;0.30;;;0.30;;
11263;SDS011;5689;48.798;9.070;2023-03-11T15:09:09;0.50;;;0.50;;
11263;SDS011;5689;48.798;9.070;2023-03-11T15:11:46;0.50;;;0.50;;
11263;SDS011;5689;48.798;9.070;2023-03-11T15:14:16;0.60;;;0.60;;
11263;SDS011;5689;48.798;9.070;2023-03-11T15:16:47;0.57;;;0.57;;
11263;SDS011;5689;48.798;9.070;2023-03-11T15:19:22;0.50;;;0.50;;
11263;SDS011;5689;48.798;9.070;2023-03-11T15:21:58;0.60;;;0.60;;
11263;SDS011;5689;48.798;9.070;2023-03-11T15:24:32;0.57;;;0.57;;
11263;SDS011;5689;48.798;9.070;2023-03-11T15:27:03;0.60;;;0.60;;
11263;SDS011;5689;48.798;9.070;2023-03-11T15:29:33;0.60;;;0.60;;
11263;SDS011;5689;48.798;9.070;2023-03-11T15:34:59;0.50;;;0.50;;
11263;SDS011;5689;48.798;9.070;2023-03-11T15:37:30;0.57;;;0.57;;
11263;SDS011;5689;48.798;9.070;2023-03-11T15:40:09;0.60;;;0.60;;
11263;SDS011;5689;48.798;9.070;2023-03-11T15:42:40;0.60;;;0.60;;
11263;SDS011;5689;48.798;9.070;2023-03-11T15:45:12;0.70;;;0.70;;
11263;SDS011;5689;48.798;9.070;2023-03-11T15:47:43;0.60;;;0.60;;
11263;SDS011;5689;48.798;9.070;2023-03-11T15:50:13;0.63;;;0.63;;
11263;SDS011;5689;48.798;9.070;2023-03-11T15:52:50;0.50;;;0.50;;